createdAt,value
2023-02-24T00:15:34.972Z,22
2023-02-24T00:31:17.816Z,21.2
2023-02-24T00:47:00.531Z,19.4
2023-02-24T01:02:42.889Z,16.79
2023-02-24T01:18:25.473Z,11.1
2023-02-24T01:34:08.069Z,9.8
2023-02-24T01:49:51.262Z,7.8
2023-02-24T02:05:34.178Z,4.8
2023-02-24T02:21:16.473Z,4.9
2023-02-24T02:36:59.120Z,4.8
2023-02-24T02:52:41.166Z,3.3
2023-02-24T03:08:23.710Z,2.4
2023-02-24T03:24:06.333Z,2.3
2023-02-24T03:39:49.349Z,2.09
2023-02-24T03:55:31.698Z,2.09
2023-02-24T04:11:13.962Z,2.09
2023-02-24T04:26:56.628Z,2.7
2023-02-24T04:58:22.748Z,3.1
2023-02-24T05:14:05.500Z,2.4
2023-02-24T05:45:31.165Z,2
2023-02-24T06:01:13.845Z,1.9
2023-02-24T06:16:56.083Z,1.2
2023-02-24T06:32:39.029Z,1.2
2023-02-24T06:48:21.427Z,1.3
2023-02-24T07:04:04.361Z,1.5
2023-02-24T07:19:47.370Z,1.9
2023-02-24T07:35:29.743Z,5.2
2023-02-24T07:51:12.468Z,12.2
2023-02-24T08:22:37.832Z,2.9
2023-02-24T08:38:20.659Z,1.9
2023-02-24T09:25:29.069Z,1.9
2023-02-24T09:41:12.137Z,1.8
2023-02-24T10:28:19.262Z,1.4
2023-02-24T10:44:02.211Z,1.2
2023-02-24T11:15:27.229Z,1.1
2023-02-24T11:46:53.333Z,1.7
2023-02-24T12:02:35.904Z,1.8
2023-02-24T12:18:18.330Z,1.9
2023-02-24T12:34:00.580Z,2.4
2023-02-24T12:49:42.786Z,1.5
2023-02-24T13:05:25.016Z,2.8
2023-02-24T13:21:08.125Z,2.2
2023-02-24T13:36:51.279Z,2
2023-02-24T13:52:33.784Z,1.9
2023-02-24T14:08:16.892Z,3.4
2023-02-24T14:23:59.081Z,9.2
2023-02-24T14:39:42.342Z,5.7
2023-02-24T14:55:25.073Z,2.2
2023-02-24T15:11:07.737Z,2.7
2023-02-24T16:49:12.571Z,5.4
2023-02-24T17:04:54.930Z,6.2
2023-02-24T17:20:38.024Z,7.7
2023-02-24T17:21:25.447Z,8.3
2023-02-24T17:52:50.873Z,9.39
2023-02-24T18:08:33.742Z,12.6
2023-02-24T18:24:16.755Z,13.6
2023-02-24T18:39:59.906Z,15.4
2023-02-24T18:55:42.758Z,15.7
2023-02-24T19:11:24.993Z,16
2023-02-24T19:27:07.853Z,16.2
2023-02-24T19:42:50.585Z,17.4
2023-02-24T19:58:33.205Z,15.5
2023-02-24T20:14:15.423Z,17.29
2023-02-24T21:01:23.861Z,20.2
2023-02-24T21:17:06.656Z,18.9
2023-02-24T21:32:48.907Z,19.7
2023-02-24T21:48:31.901Z,20.1
2023-02-24T22:04:14.676Z,17.2
2023-02-24T22:19:57.415Z,17.1
2023-02-24T22:35:39.914Z,13.3
2023-02-24T22:51:22.516Z,12
2023-02-24T23:22:47.356Z,6.4
2023-02-24T23:38:30.149Z,4.19
2023-02-24T23:54:26.930Z,3.1
